createdAt,value
2023-05-14T00:00:48.081Z,101430.63
2023-05-14T00:03:20.233Z,101420.22
2023-05-14T00:05:48.216Z,101417.69
2023-05-14T00:08:21.623Z,101417.53
2023-05-14T00:10:48.497Z,101405.09
2023-05-14T00:13:28.458Z,101409.47
2023-05-14T00:16:01.408Z,101410.56
2023-05-14T00:18:28.544Z,101398.13
2023-05-14T00:20:56.259Z,101399.09
2023-05-14T00:23:26.716Z,101395.53
2023-05-14T00:25:56.312Z,101408.41
2023-05-14T00:28:23.189Z,101397.13
2023-05-14T00:30:50.713Z,101396.16
2023-05-14T00:33:19.827Z,101397.03
2023-05-14T00:35:46.806Z,101386.63
2023-05-14T00:38:19.668Z,101390.91
2023-05-14T00:40:51.420Z,101384.41
2023-05-14T00:43:22.882Z,101371.81
2023-05-14T00:45:58.649Z,101380.22
2023-05-14T00:48:26.416Z,101377.31
2023-05-14T00:50:59.102Z,101386.16
2023-05-14T00:53:27.373Z,101381.34
2023-05-14T00:55:58.793Z,101377.91
2023-05-14T00:58:28.848Z,101374.63
2023-05-14T01:00:56.282Z,101380.03
2023-05-14T01:03:30.708Z,101373.91
2023-05-14T01:06:43.965Z,101384.66
2023-05-14T01:09:56.431Z,101381.41
2023-05-14T01:13:06.697Z,101384.38
2023-05-14T01:15:41.356Z,101385.78
2023-05-14T01:18:13.641Z,101393.38
2023-05-14T01:20:40.676Z,101393.63
2023-05-14T01:23:07.725Z,101386.16
2023-05-14T01:25:35.449Z,101390.41
2023-05-14T01:28:31.420Z,101387.31
2023-05-14T01:31:17.637Z,101384.88
2023-05-14T01:33:48.729Z,101392.81
2023-05-14T01:36:18.953Z,101386.44
2023-05-14T01:38:49.581Z,101380.63
2023-05-14T01:41:19.625Z,101385.59
2023-05-14T01:43:47.141Z,101385.63
2023-05-14T01:46:14.075Z,101379.06
2023-05-14T01:48:41.433Z,101383.22
2023-05-14T01:51:08.618Z,101373.84
2023-05-14T01:53:35.366Z,101376.41
2023-05-14T01:56:02.540Z,101373.53
2023-05-14T01:58:31.943Z,101373.00
2023-05-14T02:00:58.789Z,101365.31
2023-05-14T02:03:26.623Z,101365.44
2023-05-14T02:05:54.093Z,101364.59
2023-05-14T02:08:21.274Z,101361.75
2023-05-14T02:10:47.991Z,101363.16
2023-05-14T02:13:14.791Z,101370.56
2023-05-14T02:15:41.575Z,101367.28
2023-05-14T02:18:08.421Z,101361.31
2023-05-14T02:20:35.265Z,101358.19
2023-05-14T02:23:02.071Z,101364.56
2023-05-14T02:25:28.913Z,101355.75
2023-05-14T02:27:55.784Z,101359.88
2023-05-14T02:30:23.137Z,101363.53
2023-05-14T02:32:50.488Z,101361.97
2023-05-14T02:35:20.527Z,101366.47
2023-05-14T02:37:49.932Z,101360.63
2023-05-14T02:40:20.339Z,101357.19
2023-05-14T02:42:47.223Z,101353.84
2023-05-14T02:45:14.219Z,101356.69
2023-05-14T02:47:41.124Z,101354.13
2023-05-14T02:50:11.395Z,101353.31
2023-05-14T02:52:38.249Z,101351.78
2023-05-14T02:55:14.551Z,101348.53
2023-05-14T02:57:41.529Z,101358.69
2023-05-14T03:00:09.594Z,101348.47
2023-05-14T03:02:36.721Z,101349.44
2023-05-14T03:05:06.886Z,101352.09
2023-05-14T03:07:33.632Z,101349.50
2023-05-14T03:10:00.799Z,101350.63
2023-05-14T03:12:28.887Z,101344.06
2023-05-14T03:14:55.799Z,101349.84
2023-05-14T03:17:28.914Z,101347.53
2023-05-14T03:19:55.716Z,101341.44
2023-05-14T03:22:26.265Z,101348.91
2023-05-14T03:24:54.721Z,101335.97
2023-05-14T03:27:24.056Z,101337.25
2023-05-14T03:29:50.767Z,101335.91
2023-05-14T03:32:20.034Z,101340.50
2023-05-14T03:34:47.259Z,101340.03
2023-05-14T03:37:14.143Z,101341.94
2023-05-14T03:39:41.048Z,101349.00
2023-05-14T03:42:08.085Z,101348.47
2023-05-14T03:44:35.059Z,101345.41
2023-05-14T03:47:02.011Z,101349.84
2023-05-14T03:49:29.013Z,101334.53
2023-05-14T03:51:58.198Z,101345.78
2023-05-14T03:54:26.607Z,101344.56
2023-05-14T03:56:53.570Z,101334.97
2023-05-14T03:59:23.990Z,101339.97
2023-05-14T04:01:50.965Z,101337.97
2023-05-14T04:04:17.788Z,101334.31
2023-05-14T04:06:47.721Z,101334.19
2023-05-14T04:09:14.651Z,101340.72
2023-05-14T04:11:41.324Z,101339.00
2023-05-14T04:14:08.234Z,101343.97
2023-05-14T04:16:41.309Z,101334.97
2023-05-14T04:19:14.094Z,101333.66
2023-05-14T04:21:43.873Z,101332.63
2023-05-14T04:24:10.805Z,101333.88
2023-05-14T04:26:37.603Z,101335.97
2023-05-14T04:29:12.111Z,101331.53
2023-05-14T04:31:43.404Z,101339.00
2023-05-14T04:34:10.304Z,101335.69
2023-05-14T04:36:42.528Z,101328.34
2023-05-14T05:17:51.955Z,101339.06
2023-05-14T05:33:50.898Z,101352.91
2023-05-14T05:58:09.376Z,101345.91
2023-05-14T06:08:59.031Z,101350.66
2023-05-14T06:14:16.422Z,101358.28
2023-05-14T06:46:52.255Z,101358.78
2023-05-14T06:57:40.783Z,101360.75
2023-05-14T07:35:29.295Z,101338.03
2023-05-14T07:37:56.145Z,101338.41
2023-05-14T07:40:26.556Z,101338.50
2023-05-14T07:42:55.477Z,101343.84
2023-05-14T07:45:22.527Z,101344.59
2023-05-14T07:47:52.402Z,101342.13
2023-05-14T07:50:24.185Z,101336.53
2023-05-14T07:52:51.204Z,101320.34
2023-05-14T07:55:18.268Z,101343.19
2023-05-14T07:57:45.709Z,101346.63
2023-05-14T08:00:13.991Z,101337.25
2023-05-14T08:06:33.507Z,101334.25
2023-05-14T08:09:09.914Z,101330.81
2023-05-14T08:11:39.417Z,101316.59
2023-05-14T08:14:14.107Z,101326.16
2023-05-14T08:16:41.161Z,101316.00
2023-05-14T08:19:08.072Z,101321.94
2023-05-14T08:21:35.710Z,101329.22
2023-05-14T08:24:05.298Z,101329.88
2023-05-14T08:26:42.970Z,101318.81
2023-05-14T08:29:11.001Z,101311.09
2023-05-14T08:31:41.613Z,101319.75
2023-05-14T08:34:08.502Z,101322.59
2023-05-14T08:36:39.658Z,101310.81
2023-05-14T08:39:09.489Z,101318.31
2023-05-14T08:41:37.871Z,101327.78
2023-05-14T08:44:22.332Z,101321.41
2023-05-14T08:46:52.117Z,101313.09
2023-05-14T08:49:48.389Z,101308.47
2023-05-14T08:52:23.344Z,101301.03
2023-05-14T08:54:55.954Z,101312.06
2023-05-14T08:57:26.598Z,101309.75
2023-05-14T08:59:57.228Z,101305.84
2023-05-14T09:02:31.413Z,101302.63
2023-05-14T09:05:02.596Z,101304.59
2023-05-14T09:07:30.438Z,101296.28
2023-05-14T09:09:57.379Z,101293.00
2023-05-14T09:12:24.320Z,101300.19
2023-05-14T09:14:51.831Z,101304.78
2023-05-14T09:17:22.753Z,101305.22
2023-05-14T09:19:53.570Z,101300.81
2023-05-14T09:22:21.522Z,101296.84
2023-05-14T09:25:14.804Z,101299.63
2023-05-14T09:27:41.936Z,101309.22
2023-05-14T09:30:36.908Z,101300.47
2023-05-14T09:33:09.294Z,101302.13
2023-05-14T09:35:50.691Z,101294.09
2023-05-14T09:38:50.753Z,101288.34
2023-05-14T09:41:23.134Z,101278.53
2023-05-14T09:43:51.808Z,101282.94
2023-05-14T09:46:22.686Z,101294.16
2023-05-14T09:48:50.730Z,101288.66
2023-05-14T09:51:19.969Z,101298.41
2023-05-14T09:53:47.252Z,101282.41
2023-05-14T09:56:17.549Z,101291.13
2023-05-14T09:59:02.707Z,101284.66
2023-05-14T10:02:18.034Z,101274.94
2023-05-14T10:05:14.151Z,101283.06
2023-05-14T10:07:56.793Z,101269.75
2023-05-14T10:10:58.859Z,101273.31
2023-05-14T10:13:49.521Z,101283.94
2023-05-14T10:16:38.523Z,101270.63
2023-05-14T10:22:19.953Z,101270.47
2023-05-14T10:24:47.463Z,101273.34
2023-05-14T10:27:17.124Z,101266.50
2023-05-14T10:30:02.536Z,101262.03
2023-05-14T10:32:40.571Z,101272.47
2023-05-14T10:35:23.135Z,101261.72
2023-05-14T10:37:59.409Z,101256.78
2023-05-14T10:40:51.607Z,101254.22
2023-05-14T10:43:21.454Z,101246.53
2023-05-14T10:45:50.480Z,101242.75
2023-05-14T10:48:46.887Z,101242.44
2023-05-14T10:51:16.906Z,101240.53
2023-05-14T10:53:46.071Z,101245.78
2023-05-14T10:56:19.998Z,101233.94
2023-05-14T10:59:02.369Z,101237.53
2023-05-14T11:01:34.231Z,101240.16
2023-05-14T11:04:09.006Z,101234.13
2023-05-14T11:06:47.502Z,101231.88
2023-05-14T11:09:20.330Z,101232.09
2023-05-14T11:11:58.642Z,101234.16
2023-05-14T11:14:25.698Z,101227.63
2023-05-14T11:18:15.786Z,101224.41
2023-05-14T11:20:02.477Z,101215.34
2023-05-14T11:22:45.952Z,101220.78
2023-05-14T11:25:14.692Z,101218.44
2023-05-14T11:27:50.213Z,101216.81
2023-05-14T11:30:23.038Z,101201.72
2023-05-14T11:36:22.301Z,101203.78
2023-05-14T11:38:53.654Z,101197.03
2023-05-14T11:42:18.826Z,101192.94
2023-05-14T11:44:56.859Z,101195.72
2023-05-14T11:52:28.043Z,101190.44
2023-05-14T11:55:08.833Z,101191.66
2023-05-14T11:58:11.485Z,101179.84
2023-05-14T12:00:59.780Z,101187.34
2023-05-14T12:03:29.694Z,101178.03
2023-05-14T12:06:09.097Z,101176.97
2023-05-14T12:09:08.332Z,101166.41
2023-05-14T12:11:57.528Z,101170.06
2023-05-14T12:14:28.842Z,101162.00
2023-05-14T12:16:58.127Z,101166.16
2023-05-14T12:19:28.955Z,101163.72
2023-05-14T12:22:03.414Z,101161.91
2023-05-14T12:24:38.157Z,101163.78
2023-05-14T12:27:07.560Z,101156.47
2023-05-14T12:29:46.855Z,101158.66
2023-05-14T12:32:14.992Z,101155.16
2023-05-14T12:34:59.815Z,101150.97
2023-05-14T12:37:36.501Z,101138.16
2023-05-14T12:40:14.492Z,101136.91
2023-05-14T12:42:44.138Z,101130.06
2023-05-14T12:45:15.223Z,101132.69
2023-05-14T12:47:42.024Z,101128.63
2023-05-14T12:50:09.669Z,101126.34
2023-05-14T12:52:48.803Z,101130.56
2023-05-14T12:55:16.942Z,101130.78
2023-05-14T12:57:56.381Z,101121.47
2023-05-14T13:00:23.882Z,101117.69
2023-05-14T13:05:44.318Z,101112.31
2023-05-14T13:08:11.273Z,101108.75
2023-05-14T13:10:38.147Z,101102.59
2023-05-14T13:13:11.979Z,101092.00
2023-05-14T13:15:57.416Z,101102.38
2023-05-14T13:18:26.640Z,101102.41
2023-05-14T13:21:12.644Z,101107.91
2023-05-14T13:24:02.168Z,101095.78
2023-05-14T13:26:40.191Z,101095.41
2023-05-14T13:29:14.589Z,101093.72
2023-05-14T13:31:41.587Z,101093.66
2023-05-14T13:34:14.786Z,101083.81
2023-05-14T13:36:43.827Z,101089.06
2023-05-14T13:39:18.434Z,101085.53
2023-05-14T13:41:50.757Z,101075.22
2023-05-14T13:44:17.631Z,101076.97
2023-05-14T13:46:44.686Z,101079.72
2023-05-14T13:49:22.922Z,101081.63
2023-05-14T13:52:13.436Z,101075.91
2023-05-14T13:54:46.201Z,101076.53
2023-05-14T13:57:13.115Z,101064.72
2023-05-14T13:59:40.540Z,101067.03
2023-05-14T14:02:17.837Z,101068.13
2023-05-14T14:04:44.689Z,101065.81
2023-05-14T14:07:11.569Z,101062.41
2023-05-14T14:09:41.303Z,101065.81
2023-05-14T14:12:09.118Z,101063.47
2023-05-14T14:14:36.037Z,101066.19
2023-05-14T14:17:03.084Z,101055.88
2023-05-14T14:19:30.122Z,101054.00
2023-05-14T14:21:56.988Z,101056.50
2023-05-14T14:24:23.830Z,101059.66
2023-05-14T14:26:50.828Z,101054.59
2023-05-14T14:29:17.600Z,101049.31
2023-05-14T14:31:44.487Z,101050.78
2023-05-14T14:34:11.485Z,101053.84
2023-05-14T14:36:38.469Z,101049.13
2023-05-14T14:39:06.185Z,101047.50
2023-05-14T14:41:35.897Z,101046.91
2023-05-14T14:44:08.623Z,101039.09
2023-05-14T16:43:06.164Z,100956.44
2023-05-14T16:45:50.841Z,100955.25
2023-05-14T17:01:56.104Z,100946.88
2023-05-14T17:15:14.091Z,100943.22
2023-05-14T17:17:41.349Z,100946.53
2023-05-14T18:06:22.536Z,100913.59
2023-05-14T18:54:55.954Z,100924.34
2023-05-14T19:08:29.608Z,100929.63
2023-05-14T19:19:02.730Z,100931.31
2023-05-14T19:21:43.632Z,100926.03
2023-05-14T19:29:37.149Z,100926.03
2023-05-14T19:34:53.918Z,100933.25
2023-05-14T19:40:09.798Z,100918.34
2023-05-14T19:58:45.988Z,100910.00
2023-05-14T20:23:11.207Z,100912.56
2023-05-14T20:25:38.134Z,100909.47
2023-05-14T20:28:07.295Z,100900.41
2023-05-14T20:30:39.674Z,100909.88
2023-05-14T20:33:09.629Z,100899.84
2023-05-14T20:35:36.746Z,100899.84
2023-05-14T20:38:06.520Z,100893.03
2023-05-14T20:40:39.827Z,100896.03
2023-05-14T20:43:12.443Z,100894.63
2023-05-14T20:45:39.629Z,100889.69
2023-05-14T20:48:11.427Z,100880.34
2023-05-14T20:50:41.728Z,100887.44
2023-05-14T20:53:14.344Z,100878.09
2023-05-14T20:55:41.487Z,100881.34
2023-05-14T20:58:11.539Z,100882.03
2023-05-14T21:00:40.642Z,100870.25
2023-05-14T21:03:07.543Z,100866.56
2023-05-14T21:05:35.250Z,100867.00
2023-05-14T21:08:01.995Z,100864.06
2023-05-14T21:10:37.044Z,100860.13
2023-05-14T21:13:10.953Z,100857.56
2023-05-14T21:15:37.813Z,100857.56
2023-05-14T21:18:05.176Z,100852.78
2023-05-14T21:20:32.230Z,100843.97
2023-05-14T21:22:59.209Z,100839.75
2023-05-14T21:25:28.935Z,100841.44
2023-05-14T21:27:59.022Z,100834.63
2023-05-14T21:30:25.948Z,100831.09
2023-05-14T21:32:55.724Z,100830.53
2023-05-14T21:35:22.831Z,100823.06
2023-05-14T21:37:53.220Z,100830.56
2023-05-14T21:40:20.229Z,100824.47
2023-05-14T21:42:47.230Z,100820.94
2023-05-14T21:45:13.944Z,100834.41
2023-05-14T21:47:57.046Z,100824.34
2023-05-14T21:50:38.468Z,100823.09
2023-05-14T21:53:08.794Z,100816.75
2023-05-14T21:55:36.065Z,100816.03
2023-05-14T21:58:03.524Z,100820.88
2023-05-14T22:00:38.089Z,100808.84
2023-05-14T22:03:08.113Z,100808.13
2023-05-14T22:05:35.312Z,100819.75
2023-05-14T22:08:02.196Z,100809.13
2023-05-14T22:10:32.796Z,100799.78
2023-05-14T22:12:59.465Z,100813.09
2023-05-14T22:15:29.169Z,100810.72
2023-05-14T22:17:56.900Z,100810.53
2023-05-14T22:20:23.846Z,100812.41
2023-05-14T22:23:03.329Z,100803.91
2023-05-14T22:25:30.270Z,100808.19
2023-05-14T22:28:00.367Z,100804.06
2023-05-14T22:30:27.156Z,100807.47
2023-05-14T22:32:56.789Z,100809.47
2023-05-14T22:35:26.710Z,100801.38
2023-05-14T22:37:56.569Z,100802.97
2023-05-14T22:40:23.384Z,100807.34
2023-05-14T22:42:50.367Z,100801.25
2023-05-14T22:45:20.230Z,100794.44
2023-05-14T22:47:47.045Z,100795.56
2023-05-14T22:50:14.115Z,100794.72
2023-05-14T22:52:41.673Z,100792.16
2023-05-14T22:55:09.248Z,100787.63
2023-05-14T22:57:38.792Z,100783.56
2023-05-14T23:00:09.971Z,100781.28
2023-05-14T23:02:36.820Z,100791.34
2023-05-14T23:05:06.599Z,100785.25
2023-05-14T23:07:33.830Z,100774.63
2023-05-14T23:10:03.522Z,100765.41
2023-05-14T23:12:36.644Z,100765.56
2023-05-14T23:15:07.266Z,100762.88
2023-05-14T23:17:34.404Z,100757.78
2023-05-14T23:20:01.147Z,100753.25
2023-05-14T23:22:28.275Z,100745.72
2023-05-14T23:25:07.816Z,100734.13
2023-05-14T23:27:35.698Z,100737.81
2023-05-14T23:30:07.134Z,100739.38
2023-05-14T23:32:33.973Z,100738.91
2023-05-14T23:35:02.844Z,100735.81
2023-05-14T23:37:30.020Z,100726.31
2023-05-14T23:39:59.854Z,100724.50
2023-05-14T23:42:26.628Z,100726.03
2023-05-14T23:44:56.387Z,100723.06
2023-05-14T23:47:26.328Z,100725.75
2023-05-14T23:49:55.570Z,100727.34
2023-05-14T23:52:22.411Z,100719.09
2023-05-14T23:54:49.329Z,100720.94
2023-05-14T23:57:16.234Z,100717.41
2023-05-14T23:59:43.031Z,100717.84
